Louisville, Kentucky
Current Conditions -  °F | °C
As of 8:56 AM on Monday 24 Nov 2014 (Local Time) from KSDF Reporting Station
Light Rain Light Rain  
Wind Chill: 59°   Ceiling: 3800
Heat Index: 59°   Visibility: 3mi
Dew Point: 51°   Wind: 23mph
Humidity: 75%   Direction: 230°SW
Pressure: 29.41"   Gusts: 45mph
Location:  38.25°N, 85.77°W
Report Text: KSDF 241356Z 23020G39KT 3SM R35R/5000VP6000FT -RA BKN038 BKN065 15/11 A2941 RMK AO2 PK WND 25039/1353 RAB43 PRESRR SLP956 P0002 T01500106
Loading
Personal Weather Stations






























Interactive Weather Map New forecast layout! Learn more

10-Day Weather Forecast

Advertisements
Track Severe Weather on mobile